Time;durP1;ratioP1;P1;durP2;ratioP2;P2;SDS_P1;SDS_P2;PMS_P1;PMS_P2;Temp;Humidity;BMP_temperature;BMP_pressure;BME280_temperature;BME280_humidity;BME280_pressure;Samples;Min_cycle;Max_cycle;Signal;HPM_P1;HPM_P2
2023/07/07 00:00:52;;;;;;;6.57;2.10;;;;;;;;;;6024685;29;20251;-69
2023/07/07 00:03:56;;;;;;;4.15;2.08;;;;;;;;;;6025089;29;20247;-70
2023/07/07 00:07:03;;;;;;;2.97;2.20;;;;;;;;;;6018424;29;20259;-71
2023/07/07 00:10:08;;;;;;;2.05;1.88;;;;;;;;;;6002564;29;20248;-70
2023/07/07 00:13:13;;;;;;;2.05;1.98;;;;;;;;;;6001718;29;20252;-70
2023/07/07 00:16:20;;;;;;;2.15;2.05;;;;;;;;;;6001788;29;20307;-69
2023/07/07 00:19:24;;;;;;;3.40;2.10;;;;;;;;;;6002025;29;20509;-69
2023/07/07 00:22:31;;;;;;;4.00;2.00;;;;;;;;;;6001917;29;20556;-69
2023/07/07 00:25:36;;;;;;;2.72;2.35;;;;;;;;;;6001479;29;20247;-70
2023/07/07 00:28:40;;;;;;;4.00;2.28;;;;;;;;;;6001166;29;20571;-69
2023/07/07 00:31:45;;;;;;;2.47;2.38;;;;;;;;;;6001225;29;20252;-70
2023/07/07 00:34:50;;;;;;;5.68;2.45;;;;;;;;;;6001093;29;20240;-70
2023/07/07 00:37:56;;;;;;;3.25;1.85;;;;;;;;;;6001683;29;20462;-69
2023/07/07 00:41:02;;;;;;;2.25;2.13;;;;;;;;;;6000579;29;20275;-71
2023/07/07 00:44:08;;;;;;;3.65;2.08;;;;;;;;;;6001262;29;20244;-70
2023/07/07 00:47:12;;;;;;;2.05;1.90;;;;;;;;;;5999616;29;20291;-72
2023/07/07 00:50:19;;;;;;;2.53;2.40;;;;;;;;;;6001335;29;20427;-69
2023/07/07 00:53:26;;;;;;;2.42;2.15;;;;;;;;;;6001579;29;20248;-70
2023/07/07 00:56:34;;;;;;;4.18;2.17;;;;;;;;;;6015128;29;20287;-70
2023/07/07 00:59:40;;;;;;;4.47;1.70;;;;;;;;;;6001069;29;20240;-69
2023/07/07 01:02:53;;;;;;;3.42;2.53;;;;;;;;;;6000585;29;20243;-70
2023/07/07 01:05:58;;;;;;;2.50;2.30;;;;;;;;;;5984247;29;20275;-70
2023/07/07 01:09:08;;;;;;;2.90;1.95;;;;;;;;;;6021492;29;20267;-70
2023/07/07 01:12:15;;;;;;;9.68;2.55;;;;;;;;;;6023119;29;20254;-70
2023/07/07 01:15:21;;;;;;;3.83;2.30;;;;;;;;;;6021655;29;20459;-70
2023/07/07 01:18:33;;;;;;;4.72;2.42;;;;;;;;;;6023164;29;20298;-69
2023/07/07 01:21:41;;;;;;;2.05;1.95;;;;;;;;;;6022913;29;20267;-69
2023/07/07 01:24:58;;;;;;;3.08;1.95;;;;;;;;;;6023117;29;20247;-69
2023/07/07 01:28:23;;;;;;;6.47;2.28;;;;;;;;;;6006828;29;20306;-69
2023/07/07 01:31:32;;;;;;;3.85;2.10;;;;;;;;;;6023146;29;20243;-68
2023/07/07 01:34:37;;;;;;;2.22;2.03;;;;;;;;;;6023104;29;20252;-70
2023/07/07 01:37:50;;;;;;;2.00;2.00;;;;;;;;;;6021434;29;20282;-70
2023/07/07 01:40:58;;;;;;;3.38;2.50;;;;;;;;;;6006212;29;20283;-69
2023/07/07 01:44:08;;;;;;;8.93;2.30;;;;;;;;;;6022124;29;20284;-69
2023/07/07 01:47:17;;;;;;;5.13;2.30;;;;;;;;;;6023221;29;20283;-70
2023/07/07 01:50:25;;;;;;;2.42;2.30;;;;;;;;;;6023151;29;20242;-68
2023/07/07 01:53:32;;;;;;;2.55;2.13;;;;;;;;;;6022462;29;20247;-68
2023/07/07 01:56:37;;;;;;;3.45;2.22;;;;;;;;;;6020948;29;20283;-70
2023/07/07 01:59:42;;;;;;;7.20;2.22;;;;;;;;;;6021117;29;20283;-70
2023/07/07 02:02:48;;;;;;;6.25;2.72;;;;;;;;;;6020776;29;20295;-68
2023/07/07 02:05:53;;;;;;;4.07;2.17;;;;;;;;;;6006045;29;20275;-69
2023/07/07 02:08:57;;;;;;;3.13;2.20;;;;;;;;;;6002301;29;20279;-68
2023/07/07 02:12:02;;;;;;;6.88;2.80;;;;;;;;;;5984140;29;20295;-71
2023/07/07 02:15:08;;;;;;;3.03;2.22;;;;;;;;;;6000095;29;20511;-70
2023/07/07 02:18:14;;;;;;;8.13;2.40;;;;;;;;;;5983210;29;20303;-70
2023/07/07 02:21:20;;;;;;;6.43;2.17;;;;;;;;;;6000143;29;20387;-71
2023/07/07 02:24:24;;;;;;;2.10;2.00;;;;;;;;;;6004966;29;20252;-69
2023/07/07 02:27:29;;;;;;;4.30;2.30;;;;;;;;;;6004048;29;20278;-69
2023/07/07 02:30:35;;;;;;;6.75;2.20;;;;;;;;;;6004620;29;20411;-70
2023/07/07 02:33:41;;;;;;;7.18;2.00;;;;;;;;;;6004557;29;20247;-70
2023/07/07 02:36:46;;;;;;;5.50;2.20;;;;;;;;;;6005015;29;20319;-69
2023/07/07 02:39:51;;;;;;;3.05;2.10;;;;;;;;;;6002716;29;20517;-69
2023/07/07 02:42:56;;;;;;;8.65;2.35;;;;;;;;;;6003252;29;20285;-69
2023/07/07 02:46:00;;;;;;;9.38;2.30;;;;;;;;;;6003694;29;20244;-68
2023/07/07 02:49:06;;;;;;;4.85;2.35;;;;;;;;;;6003146;29;20283;-70
2023/07/07 02:52:11;;;;;;;2.80;1.95;;;;;;;;;;6003466;29;20252;-70
2023/07/07 02:55:15;;;;;;;2.28;2.10;;;;;;;;;;6003322;29;20240;-70
2023/07/07 02:58:20;;;;;;;4.90;2.35;;;;;;;;;;6001741;29;20279;-70
2023/07/07 03:01:25;;;;;;;2.25;2.03;;;;;;;;;;6003213;29;20247;-70
2023/07/07 03:04:31;;;;;;;4.47;2.20;;;;;;;;;;6001892;29;20279;-69
2023/07/07 03:07:35;;;;;;;4.07;2.03;;;;;;;;;;6023621;29;20563;-69
2023/07/07 03:10:41;;;;;;;2.70;2.38;;;;;;;;;;6025866;29;20266;-69
2023/07/07 03:13:48;;;;;;;6.05;2.20;;;;;;;;;;6009083;29;20274;-70
2023/07/07 03:16:58;;;;;;;6.75;2.10;;;;;;;;;;6008742;29;20310;-70
2023/07/07 03:20:13;;;;;;;5.07;2.03;;;;;;;;;;6024241;29;20295;-70
2023/07/07 03:23:18;;;;;;;2.40;2.10;;;;;;;;;;6024358;29;20433;-68
2023/07/07 03:26:25;;;;;;;3.60;2.25;;;;;;;;;;6010468;29;20278;-69
2023/07/07 03:29:31;;;;;;;4.90;2.50;;;;;;;;;;6023790;29;20583;-69
2023/07/07 03:32:37;;;;;;;3.22;2.17;;;;;;;;;;6008040;29;20378;-69
2023/07/07 03:35:43;;;;;;;4.88;1.95;;;;;;;;;;6024544;29;20243;-69
2023/07/07 03:38:48;;;;;;;3.70;2.10;;;;;;;;;;6008350;29;20472;-71
2023/07/07 03:41:53;;;;;;;2.38;2.22;;;;;;;;;;6025019;29;20247;-70
2023/07/07 03:44:58;;;;;;;3.00;2.13;;;;;;;;;;6023340;29;20283;-70
2023/07/07 03:48:03;;;;;;;3.30;1.88;;;;;;;;;;6024986;29;20243;-70
2023/07/07 03:51:11;;;;;;;3.15;2.15;;;;;;;;;;6023846;29;20279;-70
2023/07/07 03:54:16;;;;;;;3.33;1.90;;;;;;;;;;6023470;29;20288;-70
2023/07/07 03:57:20;;;;;;;2.95;1.85;;;;;;;;;;6024871;29;20247;-69
2023/07/07 04:00:26;;;;;;;5.90;2.25;;;;;;;;;;6023356;29;20298;-70
2023/07/07 04:03:31;;;;;;;2.47;2.10;;;;;;;;;;6024327;29;20251;-69
2023/07/07 04:06:38;;;;;;;2.70;1.67;;;;;;;;;;6020542;29;20271;-69
2023/07/07 04:09:43;;;;;;;4.43;2.00;;;;;;;;;;5985524;29;20303;-69
2023/07/07 04:12:47;;;;;;;2.45;2.30;;;;;;;;;;6015335;29;20275;-69
2023/07/07 04:15:59;;;;;;;5.53;2.13;;;;;;;;;;6001477;29;20356;-69
2023/07/07 04:19:04;;;;;;;2.08;1.90;;;;;;;;;;6015335;29;20282;-70
2023/07/07 04:22:10;;;;;;;2.20;2.10;;;;;;;;;;6014898;29;20303;-70
2023/07/07 04:25:17;;;;;;;2.25;2.05;;;;;;;;;;6001240;29;20255;-70
2023/07/07 04:28:23;;;;;;;4.82;2.47;;;;;;;;;;5985153;29;20328;-69
2023/07/07 04:31:29;;;;;;;6.88;2.47;;;;;;;;;;6001514;29;20247;-70
2023/07/07 04:34:33;;;;;;;4.38;1.75;;;;;;;;;;6001203;29;20260;-69
2023/07/07 04:37:39;;;;;;;8.82;2.55;;;;;;;;;;6001533;29;20259;-71
2023/07/07 04:40:44;;;;;;;3.50;1.85;;;;;;;;;;6000897;29;20252;-69
2023/07/07 04:43:50;;;;;;;4.43;2.00;;;;;;;;;;6001210;29;20262;-70
2023/07/07 04:46:54;;;;;;;1.90;1.80;;;;;;;;;;6001342;29;20255;-69
2023/07/07 04:49:59;;;;;;;5.40;2.17;;;;;;;;;;6001147;29;20271;-70
2023/07/07 04:53:05;;;;;;;10.70;2.05;;;;;;;;;;6001049;29;20432;-69
2023/07/07 04:56:10;;;;;;;8.13;2.03;;;;;;;;;;6000539;29;20531;-70
2023/07/07 04:59:16;;;;;;;3.95;2.13;;;;;;;;;;6000836;29;20269;-70
2023/07/07 05:02:22;;;;;;;4.80;1.70;;;;;;;;;;6000476;29;20248;-68
2023/07/07 05:05:27;;;;;;;6.40;2.33;;;;;;;;;;6000545;29;20251;-70
2023/07/07 05:08:34;;;;;;;2.67;2.15;;;;;;;;;;6018095;29;20454;-69
2023/07/07 05:11:39;;;;;;;3.53;1.75;;;;;;;;;;6022775;29;20275;-69
2023/07/07 05:14:44;;;;;;;1.95;1.83;;;;;;;;;;6022946;29;20365;-70
2023/07/07 05:17:49;;;;;;;4.40;2.20;;;;;;;;;;6022687;29;20306;-70
2023/07/07 05:20:54;;;;;;;4.20;1.90;;;;;;;;;;6022701;29;20260;-70
2023/07/07 05:24:00;;;;;;;2.92;1.92;;;;;;;;;;6023374;29;20246;-68
2023/07/07 05:27:06;;;;;;;3.95;1.75;;;;;;;;;;6022836;29;20243;-69
2023/07/07 05:30:11;;;;;;;2.33;2.00;;;;;;;;;;6022430;29;20318;-70
2023/07/07 05:33:16;;;;;;;3.63;1.90;;;;;;;;;;6022749;29;20243;-69
2023/07/07 05:36:20;;;;;;;4.25;1.80;;;;;;;;;;6022761;29;20255;-70
2023/07/07 05:39:27;;;;;;;3.80;1.77;;;;;;;;;;6021406;29;20493;-68
2023/07/07 05:42:31;;;;;;;2.10;1.95;;;;;;;;;;6022293;29;20255;-69
2023/07/07 05:45:36;;;;;;;7.05;2.10;;;;;;;;;;6022767;29;20251;-69
2023/07/07 05:48:41;;;;;;;3.35;2.08;;;;;;;;;;6022472;29;20250;-70
2023/07/07 05:51:46;;;;;;;4.75;1.85;;;;;;;;;;6022195;29;20279;-71
2023/07/07 05:54:52;;;;;;;12.00;2.60;;;;;;;;;;6023652;29;20251;-70
2023/07/07 05:57:56;;;;;;;7.30;2.67;;;;;;;;;;6021164;29;20306;-70
2023/07/07 06:01:01;;;;;;;7.43;2.35;;;;;;;;;;6022271;29;20250;-70
2023/07/07 06:04:06;;;;;;;4.60;2.40;;;;;;;;;;6021955;29;20251;-70
2023/07/07 06:07:11;;;;;;;1.88;1.77;;;;;;;;;;6015013;29;20248;-71
2023/07/07 06:10:17;;;;;;;2.20;2.00;;;;;;;;;;6013254;29;20291;-70
2023/07/07 06:13:24;;;;;;;6.88;2.17;;;;;;;;;;5999821;29;20251;-70
2023/07/07 06:16:29;;;;;;;7.15;2.10;;;;;;;;;;5998404;29;20330;-71
2023/07/07 06:19:33;;;;;;;5.95;2.33;;;;;;;;;;5999987;29;20247;-70
2023/07/07 06:22:38;;;;;;;5.78;1.88;;;;;;;;;;5999844;29;20252;-70
2023/07/07 06:25:44;;;;;;;3.92;1.80;;;;;;;;;;5999465;29;20252;-69
2023/07/07 06:28:48;;;;;;;4.75;1.95;;;;;;;;;;5999740;29;20243;-71
2023/07/07 06:31:53;;;;;;;5.55;1.95;;;;;;;;;;5999599;29;20276;-70
2023/07/07 06:34:58;;;;;;;2.10;1.98;;;;;;;;;;5999956;29;20274;-69
2023/07/07 06:38:03;;;;;;;8.52;2.10;;;;;;;;;;6000094;29;20268;-71
2023/07/07 06:41:12;;;;;;;12.00;2.70;;;;;;;;;;5999845;29;20334;-69
2023/07/07 06:44:16;;;;;;;2.15;1.85;;;;;;;;;;5999464;29;20264;-70
2023/07/07 06:47:21;;;;;;;6.47;1.98;;;;;;;;;;5999265;29;20388;-69
2023/07/07 06:50:29;;;;;;;6.30;2.42;;;;;;;;;;5998824;29;20271;-71
2023/07/07 06:53:34;;;;;;;4.07;2.22;;;;;;;;;;5999412;29;20244;-69
2023/07/07 06:56:40;;;;;;;2.50;1.90;;;;;;;;;;5999238;29;20259;-71
2023/07/07 06:59:44;;;;;;;3.55;2.03;;;;;;;;;;5999518;29;20248;-70
2023/07/07 07:02:49;;;;;;;8.75;1.83;;;;;;;;;;5999220;29;20276;-70
2023/07/07 07:05:54;;;;;;;4.57;1.90;;;;;;;;;;5998982;29;20427;-71
2023/07/07 07:08:59;;;;;;;5.40;1.85;;;;;;;;;;6022218;29;20535;-70
2023/07/07 07:12:05;;;;;;;5.35;2.33;;;;;;;;;;6026211;29;20319;-70
2023/07/07 07:15:11;;;;;;;3.40;1.90;;;;;;;;;;6025918;29;20267;-70
2023/07/07 07:18:15;;;;;;;5.85;2.25;;;;;;;;;;6025481;29;20290;-70
2023/07/07 07:21:20;;;;;;;4.60;2.17;;;;;;;;;;6026511;29;20247;-69
2023/07/07 07:24:25;;;;;;;3.22;2.05;;;;;;;;;;6027117;29;20252;-69
2023/07/07 07:27:31;;;;;;;3.50;2.00;;;;;;;;;;6025365;29;20239;-70
2023/07/07 07:30:36;;;;;;;4.03;2.22;;;;;;;;;;6025704;29;20267;-70
2023/07/07 07:33:40;;;;;;;4.95;2.20;;;;;;;;;;6025149;29;20247;-69
2023/07/07 07:36:45;;;;;;;5.53;2.05;;;;;;;;;;6025598;29;20258;-71
2023/07/07 07:39:49;;;;;;;3.88;2.00;;;;;;;;;;6024795;29;20267;-69
2023/07/07 07:42:58;;;;;;;5.55;2.33;;;;;;;;;;6024885;29;20247;-70
2023/07/07 07:46:03;;;;;;;4.10;2.03;;;;;;;;;;6024360;29;20312;-70
2023/07/07 07:49:07;;;;;;;5.93;2.30;;;;;;;;;;6024711;29;20267;-69
2023/07/07 07:52:12;;;;;;;6.38;2.25;;;;;;;;;;6024695;29;20279;-68
2023/07/07 07:55:17;;;;;;;6.35;2.30;;;;;;;;;;6024659;29;20261;-69
2023/07/07 07:58:23;;;;;;;2.75;2.10;;;;;;;;;;6024589;29;20251;-70
2023/07/07 08:01:27;;;;;;;7.38;1.98;;;;;;;;;;6024965;29;20288;-70
2023/07/07 08:04:32;;;;;;;2.08;1.83;;;;;;;;;;6025411;29;20251;-70
2023/07/07 08:07:38;;;;;;;3.55;2.20;;;;;;;;;;6014127;29;20532;-70
2023/07/07 08:10:42;;;;;;;7.90;2.20;;;;;;;;;;6001544;29;20243;-69
2023/07/07 08:13:48;;;;;;;6.72;2.53;;;;;;;;;;6002138;29;20252;-70
2023/07/07 08:16:53;;;;;;;5.15;2.20;;;;;;;;;;6001722;29;20307;-70
2023/07/07 08:19:58;;;;;;;5.35;2.00;;;;;;;;;;6000695;29;20411;-71
2023/07/07 08:23:02;;;;;;;8.75;2.10;;;;;;;;;;6001785;29;20247;-69
2023/07/07 08:26:07;;;;;;;4.15;2.10;;;;;;;;;;6002073;29;20519;-70
2023/07/07 08:29:16;;;;;;;2.88;2.00;;;;;;;;;;6001513;29;20252;-71
2023/07/07 08:32:24;;;;;;;4.07;1.95;;;;;;;;;;6001577;29;20279;-70
2023/07/07 08:35:29;;;;;;;3.22;2.10;;;;;;;;;;6002425;29;20248;-69
2023/07/07 08:38:33;;;;;;;3.78;2.42;;;;;;;;;;6002746;29;20259;-71
2023/07/07 08:41:38;;;;;;;3.05;2.10;;;;;;;;;;6002231;29;20564;-70
2023/07/07 08:44:44;;;;;;;5.43;2.13;;;;;;;;;;6002253;29;20245;-70
2023/07/07 08:47:58;;;;;;;2.88;2.17;;;;;;;;;;6001907;29;20247;-70
2023/07/07 08:51:06;;;;;;;3.78;2.22;;;;;;;;;;6001300;29;20248;-70
2023/07/07 08:54:16;;;;;;;3.20;2.10;;;;;;;;;;6001519;29;20255;-69
2023/07/07 08:57:21;;;;;;;4.45;2.47;;;;;;;;;;6000875;29;20259;-71
2023/07/07 09:00:38;;;;;;;2.53;2.33;;;;;;;;;;6001365;29;20248;-69
2023/07/07 09:03:54;;;;;;;2.65;2.45;;;;;;;;;;6000943;29;20248;-70
2023/07/07 09:07:27;;;;;;;4.03;2.33;;;;;;;;;;6006282;29;20282;-70
2023/07/07 09:10:39;;;;;;;2.80;2.28;;;;;;;;;;6023605;29;20243;-70
2023/07/07 09:13:45;;;;;;;2.40;2.28;;;;;;;;;;6023355;29;20267;-70
2023/07/07 09:16:52;;;;;;;2.88;2.10;;;;;;;;;;6021665;29;20330;-71
2023/07/07 09:19:58;;;;;;;5.95;2.47;;;;;;;;;;6023364;29;20254;-70
2023/07/07 09:23:06;;;;;;;6.32;2.22;;;;;;;;;;6023171;29;20307;-70
2023/07/07 09:26:15;;;;;;;2.67;2.20;;;;;;;;;;6023172;29;20251;-71
2023/07/07 09:29:22;;;;;;;2.42;2.17;;;;;;;;;;6023144;29;20437;-70
2023/07/07 09:32:28;;;;;;;5.47;2.67;;;;;;;;;;6023321;29;20294;-70
2023/07/07 09:35:36;;;;;;;2.42;2.00;;;;;;;;;;6023216;29;20239;-70
2023/07/07 09:38:50;;;;;;;3.08;2.65;;;;;;;;;;6023583;29;20259;-71
2023/07/07 09:42:02;;;;;;;5.30;2.65;;;;;;;;;;6021154;29;20322;-70
2023/07/07 09:45:27;;;;;;;3.05;2.70;;;;;;;;;;6023172;29;20248;-70
2023/07/07 09:48:38;;;;;;;9.55;2.65;;;;;;;;;;6020656;29;20275;-69
2023/07/07 09:51:50;;;;;;;4.63;2.97;;;;;;;;;;6022651;29;20409;-71
2023/07/07 09:54:55;;;;;;;3.15;2.13;;;;;;;;;;6022916;29;20240;-72
2023/07/07 09:58:04;;;;;;;5.30;2.10;;;;;;;;;;6023414;29;20251;-70
2023/07/07 10:01:10;;;;;;;7.90;2.45;;;;;;;;;;6022621;29;20252;-71
2023/07/07 10:04:19;;;;;;;4.07;2.65;;;;;;;;;;6023778;29;20243;-70
2023/07/07 10:07:25;;;;;;;4.05;2.63;;;;;;;;;;6013538;29;20260;-69
2023/07/07 10:10:29;;;;;;;6.40;2.33;;;;;;;;;;5999717;29;20252;-71
2023/07/07 10:13:35;;;;;;;7.80;2.72;;;;;;;;;;5999388;29;20287;-70
2023/07/07 10:16:47;;;;;;;12.00;2.53;;;;;;;;;;5999595;29;20296;-70
2023/07/07 10:19:56;;;;;;;5.78;2.55;;;;;;;;;;5999801;29;20240;-69
2023/07/07 10:23:00;;;;;;;6.32;2.28;;;;;;;;;;5999517;29;20260;-70
2023/07/07 10:26:05;;;;;;;4.07;2.60;;;;;;;;;;5999332;29;20251;-70
2023/07/07 10:29:15;;;;;;;8.27;2.58;;;;;;;;;;5999337;29;20251;-70
2023/07/07 10:32:23;;;;;;;3.10;2.40;;;;;;;;;;5999576;29;20267;-71
2023/07/07 10:35:29;;;;;;;3.95;2.50;;;;;;;;;;5999667;29;20473;-71
2023/07/07 10:38:34;;;;;;;4.15;2.35;;;;;;;;;;6000067;29;20544;-69
2023/07/07 10:41:53;;;;;;;2.70;2.50;;;;;;;;;;5999262;29;20248;-70
2023/07/07 10:44:59;;;;;;;7.78;2.75;;;;;;;;;;6003804;29;20248;-70
2023/07/07 10:48:06;;;;;;;4.13;2.75;;;;;;;;;;6003484;29;20252;-71
2023/07/07 10:51:20;;;;;;;2.85;2.50;;;;;;;;;;6003537;29;20252;-69
2023/07/07 10:54:29;;;;;;;2.35;2.25;;;;;;;;;;6004402;29;20355;-71
2023/07/07 10:57:44;;;;;;;3.08;2.22;;;;;;;;;;6004023;29;20239;-70
2023/07/07 11:00:57;;;;;;;2.67;2.35;;;;;;;;;;6003568;29;20531;-71
2023/07/07 11:04:28;;;;;;;2.53;2.30;;;;;;;;;;6003282;29;20505;-70
2023/07/07 11:07:50;;;;;;;2.55;2.35;;;;;;;;;;5988972;29;20458;-70
2023/07/07 11:11:14;;;;;;;2.30;2.10;;;;;;;;;;6026681;29;20247;-70
2023/07/07 11:14:30;;;;;;;2.30;2.17;;;;;;;;;;6026533;29;20270;-69
2023/07/07 11:17:48;;;;;;;2.63;2.28;;;;;;;;;;6026440;29;20295;-70
2023/07/07 11:21:02;;;;;;;2.67;2.22;;;;;;;;;;6026401;29;20255;-71
2023/07/07 11:24:13;;;;;;;2.20;2.10;;;;;;;;;;6025886;29;20255;-70
2023/07/07 11:27:48;;;;;;;4.90;2.47;;;;;;;;;;6025754;29;20274;-71
2023/07/07 11:31:00;;;;;;;3.53;1.88;;;;;;;;;;6020012;29;20364;-70
2023/07/07 11:34:13;;;;;;;2.78;2.20;;;;;;;;;;6026146;29;20656;-70
2023/07/07 11:37:26;;;;;;;3.15;2.08;;;;;;;;;;6026084;29;20263;-70
2023/07/07 11:40:56;;;;;;;5.50;2.70;;;;;;;;;;6025663;29;20243;-70
2023/07/07 11:44:15;;;;;;;3.85;2.13;;;;;;;;;;6019125;29;20278;-69
2023/07/07 11:47:35;;;;;;;4.72;2.08;;;;;;;;;;6025607;29;20255;-69
2023/07/07 11:51:00;;;;;;;2.33;2.13;;;;;;;;;;6025658;29;20248;-68
2023/07/07 11:54:35;;;;;;;2.50;1.95;;;;;;;;;;6024504;29;20420;-69
2023/07/07 11:57:52;;;;;;;2.38;2.20;;;;;;;;;;6024288;29;20278;-69
2023/07/07 12:01:05;;;;;;;3.13;2.20;;;;;;;;;;6025641;29;20247;-69
2023/07/07 12:04:15;;;;;;;2.97;2.30;;;;;;;;;;6025529;29;20243;-70
2023/07/07 12:07:22;;;;;;;3.15;1.90;;;;;;;;;;6017105;29;20247;-73
2023/07/07 12:10:29;;;;;;;2.20;2.10;;;;;;;;;;6002577;29;20248;-69
2023/07/07 12:13:38;;;;;;;5.35;2.55;;;;;;;;;;5986008;29;20296;-71
2023/07/07 12:16:45;;;;;;;4.78;2.30;;;;;;;;;;6002319;29;20340;-70
2023/07/07 12:19:52;;;;;;;7.40;2.65;;;;;;;;;;6002493;29;20248;-70
2023/07/07 12:23:00;;;;;;;2.70;2.60;;;;;;;;;;6002467;29;20240;-70
2023/07/07 12:26:12;;;;;;;5.03;2.67;;;;;;;;;;6001776;29;20443;-70
2023/07/07 12:29:19;;;;;;;3.85;2.45;;;;;;;;;;6002298;29;20240;-70
2023/07/07 12:32:23;;;;;;;5.45;2.40;;;;;;;;;;6001847;29;20252;-70
2023/07/07 12:35:31;;;;;;;2.00;1.90;;;;;;;;;;6002231;29;20529;-69
2023/07/07 12:38:36;;;;;;;2.10;2.00;;;;;;;;;;6001525;29;20268;-69
2023/07/07 12:41:41;;;;;;;4.40;1.80;;;;;;;;;;6001586;29;20259;-70
2023/07/07 12:44:47;;;;;;;2.92;1.83;;;;;;;;;;6001570;29;20251;-70
2023/07/07 12:47:57;;;;;;;9.55;2.38;;;;;;;;;;6001720;29;20273;-70
2023/07/07 12:51:05;;;;;;;3.28;1.83;;;;;;;;;;6001849;29;20257;-70
2023/07/07 12:54:28;;;;;;;4.32;2.00;;;;;;;;;;6001211;29;20268;-70
2023/07/07 12:57:32;;;;;;;2.00;1.90;;;;;;;;;;6001106;29;20271;-70
2023/07/07 13:00:41;;;;;;;2.30;1.90;;;;;;;;;;6001126;29;20247;-69
2023/07/07 13:04:11;;;;;;;3.95;1.60;;;;;;;;;;6001598;29;20524;-70
2023/07/07 13:07:21;;;;;;;2.08;1.88;;;;;;;;;;6008346;29;20247;-70
2023/07/07 13:10:47;;;;;;;2.17;1.98;;;;;;;;;;6023528;29;20251;-70
2023/07/07 13:13:52;;;;;;;2.03;1.90;;;;;;;;;;6023454;29;20691;-71
2023/07/07 13:16:59;;;;;;;5.82;2.42;;;;;;;;;;6023356;29;20306;-70
2023/07/07 13:20:06;;;;;;;13.90;3.80;;;;;;;;;;6023718;29;20311;-70
2023/07/07 13:23:18;;;;;;;5.95;2.60;;;;;;;;;;6023547;29;20496;-70
2023/07/07 13:26:24;;;;;;;2.75;2.33;;;;;;;;;;6023751;29;20262;-71
2023/07/07 13:29:28;;;;;;;2.97;1.95;;;;;;;;;;6023724;29;20263;-70
2023/07/07 13:32:35;;;;;;;3.05;1.80;;;;;;;;;;6023286;29;20246;-70
2023/07/07 13:35:42;;;;;;;2.05;1.80;;;;;;;;;;6023470;29;20275;-70
2023/07/07 13:38:49;;;;;;;1.80;1.80;;;;;;;;;;6023771;29;20255;-71
2023/07/07 13:41:56;;;;;;;3.22;1.80;;;;;;;;;;6023380;29;20247;-70
2023/07/07 13:45:02;;;;;;;4.35;2.00;;;;;;;;;;6023437;29;20246;-71
2023/07/07 13:48:17;;;;;;;4.78;2.00;;;;;;;;;;6023359;29;20246;-70
2023/07/07 13:51:25;;;;;;;2.13;2.13;;;;;;;;;;6023070;29;20539;-70
2023/07/07 13:54:29;;;;;;;2.38;2.08;;;;;;;;;;6022895;29;20278;-70
2023/07/07 13:57:36;;;;;;;2.63;2.33;;;;;;;;;;6023269;29;20255;-70
2023/07/07 14:00:40;;;;;;;2.05;1.95;;;;;;;;;;6023067;29;20250;-70
2023/07/07 14:03:48;;;;;;;46.78;5.60;;;;;;;;;;6022771;29;20314;-70
2023/07/07 14:06:53;;;;;;;2.35;2.25;;;;;;;;;;6018083;29;20296;-69
2023/07/07 14:09:58;;;;;;;8.15;2.90;;;;;;;;;;6000339;29;20497;-71
2023/07/07 14:13:03;;;;;;;6.72;3.00;;;;;;;;;;6000741;29;20251;-70
2023/07/07 14:16:09;;;;;;;2.13;2.03;;;;;;;;;;6000309;29;20299;-69
2023/07/07 14:19:19;;;;;;;12.05;10.82;;;;;;;;;;6003630;29;20247;-71
2023/07/07 14:22:25;;;;;;;3.42;2.25;;;;;;;;;;6004630;29;20243;-71
2023/07/07 14:25:29;;;;;;;3.47;3.28;;;;;;;;;;6004827;29;20394;-70
2023/07/07 14:28:35;;;;;;;3.95;3.65;;;;;;;;;;6004352;29;20247;-71
2023/07/07 14:31:41;;;;;;;3.08;2.70;;;;;;;;;;6004683;29;20251;-71
2023/07/07 14:34:48;;;;;;;4.85;4.53;;;;;;;;;;5988625;29;20294;-70
2023/07/07 14:37:55;;;;;;;5.38;3.08;;;;;;;;;;6004688;29;20264;-71
2023/07/07 14:41:00;;;;;;;2.20;2.00;;;;;;;;;;6004494;29;20485;-71
2023/07/07 14:44:04;;;;;;;6.18;5.57;;;;;;;;;;6004399;29;20543;-70
2023/07/07 14:47:10;;;;;;;3.75;2.53;;;;;;;;;;5987839;29;20275;-70
2023/07/07 14:50:16;;;;;;;3.08;2.88;;;;;;;;;;6017837;29;20496;-69
2023/07/07 14:53:23;;;;;;;3.35;2.05;;;;;;;;;;6003855;29;20339;-71
2023/07/07 14:56:32;;;;;;;3.05;2.85;;;;;;;;;;6003754;29;20311;-69
2023/07/07 14:59:39;;;;;;;5.15;3.55;;;;;;;;;;6004551;29;20247;-70
2023/07/07 15:02:44;;;;;;;5.57;4.00;;;;;;;;;;6004132;29;20497;-70
2023/07/07 15:05:50;;;;;;;6.13;3.00;;;;;;;;;;6003722;29;20248;-70
2023/07/07 15:08:55;;;;;;;3.40;3.10;;;;;;;;;;6023634;29;20251;-70
2023/07/07 15:12:00;;;;;;;3.13;2.92;;;;;;;;;;6027821;29;20247;-69
2023/07/07 15:15:06;;;;;;;3.03;2.72;;;;;;;;;;6026151;29;20270;-70
2023/07/07 15:18:11;;;;;;;3.25;2.50;;;;;;;;;;6025879;29;20294;-71
2023/07/07 15:21:21;;;;;;;4.38;3.97;;;;;;;;;;6024958;29;20283;-70
2023/07/07 15:24:26;;;;;;;3.15;2.95;;;;;;;;;;6025882;29;20243;-70
2023/07/07 15:27:30;;;;;;;2.90;2.20;;;;;;;;;;6025963;29;20275;-71
2023/07/07 15:30:35;;;;;;;2.38;2.15;;;;;;;;;;6026038;29;20243;-71
2023/07/07 15:33:40;;;;;;;5.20;3.63;;;;;;;;;;6026024;29;20243;-70
2023/07/07 15:36:45;;;;;;;2.78;2.50;;;;;;;;;;6025562;29;20294;-71
2023/07/07 15:39:50;;;;;;;3.13;2.55;;;;;;;;;;6026151;29;20284;-70
2023/07/07 15:42:55;;;;;;;5.07;3.75;;;;;;;;;;6023967;29;20275;-71
2023/07/07 15:45:59;;;;;;;5.75;2.33;;;;;;;;;;6026104;29;20255;-70
2023/07/07 15:49:10;;;;;;;2.80;2.65;;;;;;;;;;6025978;29;20248;-71
2023/07/07 15:52:18;;;;;;;2.97;1.85;;;;;;;;;;6025597;29;20252;-71
2023/07/07 15:55:22;;;;;;;1.98;1.88;;;;;;;;;;6026067;29;20279;-71
2023/07/07 15:58:27;;;;;;;1.60;1.60;;;;;;;;;;6025357;29;20267;-70
2023/07/07 16:01:31;;;;;;;3.05;2.33;;;;;;;;;;6025529;29;20254;-70
2023/07/07 16:04:36;;;;;;;4.43;4.22;;;;;;;;;;6025561;29;20548;-70
2023/07/07 16:07:42;;;;;;;3.80;2.08;;;;;;;;;;6014348;29;20281;-70
2023/07/07 16:10:46;;;;;;;3.85;3.13;;;;;;;;;;6003263;29;20244;-70
2023/07/07 16:13:52;;;;;;;1.40;1.40;;;;;;;;;;6004853;29;20248;-70
2023/07/07 16:16:57;;;;;;;1.42;1.42;;;;;;;;;;5994135;29;20308;-70
2023/07/07 16:20:05;;;;;;;4.88;2.45;;;;;;;;;;5981400;29;20248;-72
2023/07/07 16:23:11;;;;;;;1.45;1.45;;;;;;;;;;5981552;29;20248;-70
2023/07/07 16:26:21;;;;;;;1.52;1.35;;;;;;;;;;5981378;29;20252;-70
2023/07/07 16:29:27;;;;;;;3.33;1.48;;;;;;;;;;5980736;29;20247;-69
2023/07/07 16:32:33;;;;;;;3.80;1.60;;;;;;;;;;5964423;29;20296;-70
2023/07/07 16:35:38;;;;;;;3.60;1.80;;;;;;;;;;5980016;29;20240;-70
2023/07/07 16:38:45;;;;;;;2.05;1.52;;;;;;;;;;5980570;29;20264;-70
2023/07/07 16:41:49;;;;;;;1.85;1.55;;;;;;;;;;5979244;29;20263;-70
2023/07/07 16:44:54;;;;;;;1.67;1.60;;;;;;;;;;5979106;29;20431;-70
2023/07/07 16:47:59;;;;;;;4.25;2.15;;;;;;;;;;5979087;29;20288;-70
2023/07/07 16:51:03;;;;;;;2.30;1.90;;;;;;;;;;5978734;29;20248;-70
2023/07/07 16:54:10;;;;;;;1.50;1.50;;;;;;;;;;5979245;29;20290;-69
2023/07/07 16:57:18;;;;;;;1.63;1.52;;;;;;;;;;5979294;29;20271;-71
2023/07/07 17:00:24;;;;;;;1.60;1.45;;;;;;;;;;5978663;29;20241;-70
2023/07/07 17:03:29;;;;;;;3.10;1.75;;;;;;;;;;5979058;29;20244;-70
2023/07/07 17:06:35;;;;;;;2.10;1.58;;;;;;;;;;5978405;29;20257;-70
2023/07/07 17:09:41;;;;;;;1.65;1.60;;;;;;;;;;5978842;29;20252;-70
2023/07/07 17:12:46;;;;;;;2.15;1.45;;;;;;;;;;5978431;29;20298;-70
2023/07/07 17:15:50;;;;;;;3.28;1.50;;;;;;;;;;5992110;29;20466;-70
2023/07/07 17:18:56;;;;;;;3.42;1.70;;;;;;;;;;5978760;29;20271;-70
2023/07/07 17:22:02;;;;;;;3.35;2.85;;;;;;;;;;5978347;29;20248;-70
2023/07/07 17:25:11;;;;;;;2.60;2.50;;;;;;;;;;5978011;29;20248;-71
2023/07/07 17:28:16;;;;;;;2.92;2.30;;;;;;;;;;5978715;29;20247;-71
2023/07/07 17:31:21;;;;;;;3.33;2.05;;;;;;;;;;5978149;29;20267;-70
2023/07/07 17:34:28;;;;;;;3.63;1.95;;;;;;;;;;6001028;29;20618;-70
2023/07/07 17:37:33;;;;;;;2.50;1.95;;;;;;;;;;6000273;29;20298;-70
2023/07/07 17:40:40;;;;;;;1.73;1.60;;;;;;;;;;6000446;29;20256;-70
2023/07/07 17:43:45;;;;;;;1.85;1.75;;;;;;;;;;6000712;29;20247;-69
2023/07/07 17:46:49;;;;;;;2.25;1.60;;;;;;;;;;6000905;29;20256;-70
2023/07/07 17:49:54;;;;;;;1.65;1.65;;;;;;;;;;6000765;29;20545;-70
2023/07/07 17:52:58;;;;;;;1.58;1.48;;;;;;;;;;5999751;29;20328;-70
2023/07/07 17:56:05;;;;;;;3.72;2.20;;;;;;;;;;6000550;29;20496;-71
2023/07/07 17:59:18;;;;;;;3.45;2.20;;;;;;;;;;6000536;29;20279;-70
2023/07/07 18:02:23;;;;;;;1.98;1.88;;;;;;;;;;6000505;29;20259;-71
2023/07/07 18:05:28;;;;;;;2.80;2.22;;;;;;;;;;6000644;29;20243;-70
2023/07/07 18:08:33;;;;;;;1.95;1.95;;;;;;;;;;5982671;29;20347;-70
2023/07/07 18:11:39;;;;;;;3.40;1.98;;;;;;;;;;5977491;29;20248;-71
2023/07/07 18:14:43;;;;;;;4.18;2.40;;;;;;;;;;5977491;29;20261;-70
2023/07/07 18:17:48;;;;;;;1.85;1.85;;;;;;;;;;5977280;29;20295;-71
2023/07/07 18:21:16;;;;;;;1.95;1.90;;;;;;;;;;5977718;29;20256;-69
2023/07/07 18:24:41;;;;;;;2.40;2.20;;;;;;;;;;5978839;29;20248;-71
2023/07/07 18:27:47;;;;;;;3.15;2.20;;;;;;;;;;5977620;29;20252;-70
2023/07/07 18:30:56;;;;;;;1.98;1.85;;;;;;;;;;5977213;29;20514;-70
2023/07/07 18:34:01;;;;;;;2.08;1.95;;;;;;;;;;5977742;29;20248;-71
2023/07/07 18:37:10;;;;;;;1.80;1.70;;;;;;;;;;5977266;29;20283;-70
2023/07/07 18:40:19;;;;;;;2.13;1.75;;;;;;;;;;5977140;29;20252;-69
2023/07/07 18:43:25;;;;;;;3.13;1.55;;;;;;;;;;5961225;29;20291;-71